Time;durP1;ratioP1;P1;durP2;ratioP2;P2;SDS_P1;SDS_P2;PMS_P1;PMS_P2;Temp;Humidity;BMP_temperature;BMP_pressure;BME280_temperature;BME280_humidity;BME280_pressure;Samples;Min_cycle;Max_cycle;Signal;HPM_P1;HPM_P2
2022/06/30 00:01:29;;;;;;;17.90;4.85;;;25.70;75.60;;;;;;5075171;28;20131;-69
2022/06/30 00:03:54;;;;;;;13.32;4.28;;;25.70;75.50;;;;;;5074942;28;20099;-69
2022/06/30 00:06:20;;;;;;;26.02;4.78;;;25.80;75.70;;;;;;5074940;28;20040;-64
2022/06/30 00:08:46;;;;;;;19.10;4.85;;;25.80;75.80;;;;;;5074734;28;20028;-64
2022/06/30 00:11:12;;;;;;;24.73;6.20;;;25.70;76.20;;;;;;5075071;28;20036;-63
2022/06/30 00:13:39;;;;;;;17.55;5.13;;;25.60;76.50;;;;;;5074693;28;20037;-64
2022/06/30 00:16:05;;;;;;;18.80;5.15;;;25.50;76.50;;;;;;5074705;28;20391;-64
2022/06/30 00:18:32;;;;;;;19.13;5.10;;;25.40;77.10;;;;;;5074397;28;20498;-64
2022/06/30 00:20:58;;;;;;;15.68;4.95;;;25.30;77.40;;;;;;5074685;28;20445;-69
2022/06/30 00:23:24;;;;;;;18.08;4.90;;;25.30;77.40;;;;;;5074509;28;20047;-64
2022/06/30 00:25:50;;;;;;;18.30;5.03;;;25.30;77.20;;;;;;5074414;28;20474;-64
2022/06/30 00:28:19;;;;;;;14.43;4.75;;;25.30;77.40;;;;;;5074228;28;20029;-64
2022/06/30 00:30:46;;;;;;;20.80;4.72;;;25.30;77.80;;;;;;5074431;28;20040;-64
2022/06/30 00:33:12;;;;;;;25.63;5.28;;;25.20;77.70;;;;;;5074005;28;20105;-68
2022/06/30 00:35:38;;;;;;;22.35;5.35;;;25.20;77.80;;;;;;5074675;28;20036;-68
2022/06/30 00:38:04;;;;;;;19.10;5.40;;;25.20;78.10;;;;;;5074597;28;20037;-64
2022/06/30 00:40:35;;;;;;;17.55;5.55;;;25.30;77.70;;;;;;5074402;28;20037;-65
2022/06/30 00:43:01;;;;;;;20.38;5.00;;;25.30;77.60;;;;;;5074100;28;20501;-64
2022/06/30 00:45:27;;;;;;;15.00;4.65;;;25.30;77.40;;;;;;5074278;28;20112;-64
2022/06/30 00:47:52;;;;;;;15.63;5.20;;;25.30;77.50;;;;;;5073826;28;20376;-64
2022/06/30 00:50:18;;;;;;;16.50;4.60;;;25.20;77.70;;;;;;5074020;28;20360;-64
2022/06/30 00:52:45;;;;;;;19.52;5.10;;;25.30;77.40;;;;;;5073826;28;20068;-64
2022/06/30 00:55:13;;;;;;;21.75;5.00;;;25.30;77.60;;;;;;5074084;28;20032;-65
2022/06/30 00:57:41;;;;;;;21.98;5.53;;;25.20;77.60;;;;;;5073040;28;20456;-65
2022/06/30 01:00:07;;;;;;;18.50;5.53;;;25.10;77.50;;;;;;5069768;28;20437;-64
2022/06/30 01:02:34;;;;;;;19.70;5.95;;;25.10;77.90;;;;;;5071446;28;20041;-64
2022/06/30 01:05:01;;;;;;;21.40;5.47;;;25.10;77.80;;;;;;5072404;28;20067;-63
2022/06/30 01:07:28;;;;;;;18.73;5.13;;;24.90;78.10;;;;;;5073629;28;20033;-68
2022/06/30 01:12:44;;;;;;;18.52;5.38;;;24.80;78.70;;;;;;5073591;28;20098;-64
2022/06/30 01:15:11;;;;;;;21.30;5.65;;;24.80;78.70;;;;;;5073317;28;20102;-64
2022/06/30 01:17:36;;;;;;;13.75;4.90;;;24.70;79.30;;;;;;5073467;28;20040;-64
2022/06/30 01:20:03;;;;;;;16.88;5.20;;;24.80;79.10;;;;;;5073438;28;20043;-63
2022/06/30 01:22:29;;;;;;;17.10;5.30;;;24.80;81.70;;;;;;5073485;28;20468;-64
2022/06/30 01:24:54;;;;;;;18.23;5.00;;;24.80;80.70;;;;;;5072836;28;20036;-64
2022/06/30 01:27:20;;;;;;;14.63;4.47;;;24.80;79.40;;;;;;5073122;28;20167;-64
2022/06/30 01:29:46;;;;;;;16.98;5.45;;;24.80;79.00;;;;;;5073246;28;20036;-64
2022/06/30 01:32:12;;;;;;;19.23;5.28;;;24.90;78.70;;;;;;5073083;28;20048;-64
2022/06/30 01:34:38;;;;;;;18.52;5.32;;;24.80;78.50;;;;;;5073463;28;20051;-64
2022/06/30 01:37:04;;;;;;;21.38;5.32;;;24.80;78.10;;;;;;5072977;28;20107;-68
2022/06/30 01:39:30;;;;;;;15.43;4.63;;;24.80;77.70;;;;;;5073178;28;20067;-68
2022/06/30 01:41:56;;;;;;;18.75;5.32;;;24.90;77.10;;;;;;5073124;28;20463;-66
2022/06/30 01:44:21;;;;;;;24.38;6.32;;;24.90;76.90;;;;;;5073272;28;20482;-65
2022/06/30 01:46:48;;;;;;;19.08;4.50;;;24.90;76.70;;;;;;5073258;28;20402;-64
2022/06/30 01:49:15;;;;;;;18.35;5.00;;;24.90;76.70;;;;;;5073045;28;20083;-64
2022/06/30 01:51:42;;;;;;;18.02;4.85;;;24.90;76.70;;;;;;5073105;28;20036;-64
2022/06/30 01:54:08;;;;;;;18.55;4.90;;;24.90;77.10;;;;;;5073008;28;20041;-64
2022/06/30 01:56:38;;;;;;;14.43;5.47;;;24.90;76.50;;;;;;5072922;28;20533;-63
2022/06/30 01:59:05;;;;;;;18.48;5.85;;;24.90;76.40;;;;;;5072957;28;20032;-64
2022/06/30 02:01:31;;;;;;;20.05;5.90;;;24.80;76.90;;;;;;5073104;28;20025;-64
2022/06/30 02:04:46;;;;;;;20.35;5.72;;;24.70;77.20;;;;;;5072923;28;20491;-69
2022/06/30 02:06:43;;;;;;;21.75;4.97;;;24.70;77.20;;;;;;5072614;28;20402;-64
2022/06/30 02:09:09;;;;;;;20.70;4.72;;;24.60;77.40;;;;;;5072602;28;20036;-64
2022/06/30 02:11:34;;;;;;;18.48;5.15;;;24.60;77.30;;;;;;5072922;28;20033;-64
2022/06/30 02:14:00;;;;;;;21.52;5.07;;;24.60;77.40;;;;;;5073036;28;20036;-68
2022/06/30 02:16:26;;;;;;;22.48;5.65;;;24.60;77.50;;;;;;5072957;28;20028;-64
2022/06/30 02:18:52;;;;;;;16.45;5.50;;;24.60;77.40;;;;;;5072710;28;20045;-64
2022/06/30 02:21:17;;;;;;;18.13;5.20;;;24.60;77.70;;;;;;5072541;28;20028;-68
2022/06/30 02:23:44;;;;;;;17.70;4.88;;;24.60;77.30;;;;;;5072396;28;20048;-64
2022/06/30 02:26:09;;;;;;;18.98;5.65;;;24.60;77.50;;;;;;5072917;28;20029;-64
2022/06/30 02:28:35;;;;;;;22.13;5.40;;;24.60;77.70;;;;;;5072754;28;20489;-64
2022/06/30 02:31:00;;;;;;;20.83;5.00;;;24.60;77.70;;;;;;5072644;28;20550;-64
2022/06/30 02:33:26;;;;;;;19.92;5.53;;;24.50;77.50;;;;;;5072062;28;20054;-64
2022/06/30 02:35:52;;;;;;;18.05;5.15;;;24.50;77.50;;;;;;5073424;28;20111;-64
2022/06/30 02:38:18;;;;;;;19.92;5.15;;;24.50;78.20;;;;;;5076522;28;20032;-64
2022/06/30 02:40:43;;;;;;;26.17;6.10;;;24.50;78.60;;;;;;5076796;28;20390;-64
2022/06/30 02:43:09;;;;;;;12.45;5.18;;;24.40;78.80;;;;;;5076568;28;20043;-64
2022/06/30 02:45:35;;;;;;;23.42;5.95;;;24.40;78.70;;;;;;5076368;28;20060;-64
2022/06/30 02:48:00;;;;;;;17.00;5.70;;;24.40;79.00;;;;;;5076234;28;20471;-64
2022/06/30 02:50:26;;;;;;;18.55;4.97;;;24.30;79.20;;;;;;5076416;28;20024;-64
2022/06/30 02:52:52;;;;;;;16.80;5.80;;;24.30;79.40;;;;;;5076150;28;20040;-64
2022/06/30 02:55:18;;;;;;;13.90;4.95;;;24.30;79.70;;;;;;5076266;28;20035;-64
2022/06/30 02:57:43;;;;;;;23.20;6.30;;;24.40;79.80;;;;;;5076491;28;20047;-65
2022/06/30 03:00:10;;;;;;;14.00;5.28;;;24.40;78.80;;;;;;5076190;28;20471;-64
2022/06/30 03:02:37;;;;;;;15.35;4.95;;;24.30;79.20;;;;;;5076162;28;20071;-64
2022/06/30 03:05:03;;;;;;;18.08;5.38;;;24.20;79.40;;;;;;5076231;28;20060;-67
2022/06/30 03:07:29;;;;;;;17.67;5.00;;;24.20;79.40;;;;;;5075923;28;20032;-64
2022/06/30 03:09:55;;;;;;;23.67;5.75;;;24.20;79.40;;;;;;5076277;28;20364;-64
2022/06/30 03:12:21;;;;;;;21.48;5.40;;;24.20;79.80;;;;;;5075870;28;20047;-64
2022/06/30 03:14:47;;;;;;;16.08;4.80;;;24.20;79.60;;;;;;5076091;28;20032;-64
2022/06/30 03:17:13;;;;;;;17.85;5.18;;;24.20;79.30;;;;;;5075974;28;20107;-64
2022/06/30 03:19:39;;;;;;;18.77;5.47;;;24.20;78.90;;;;;;5075759;28;20067;-64
2022/06/30 03:22:05;;;;;;;24.08;6.10;;;24.20;79.10;;;;;;5075854;28;20041;-64
2022/06/30 03:24:30;;;;;;;18.70;5.30;;;24.20;79.20;;;;;;5076065;28;20036;-64
2022/06/30 03:26:56;;;;;;;21.65;6.40;;;24.20;79.30;;;;;;5076019;28;20497;-67
2022/06/30 03:29:22;;;;;;;18.67;5.78;;;24.20;79.20;;;;;;5075845;28;20101;-64
2022/06/30 03:31:47;;;;;;;19.10;6.57;;;24.20;79.20;;;;;;5075779;28;20045;-64
2022/06/30 03:34:13;;;;;;;19.40;5.70;;;24.10;79.40;;;;;;5073667;28;20048;-64
2022/06/30 03:36:39;;;;;;;20.38;5.93;;;24.10;80.00;;;;;;5075517;28;20044;-64
2022/06/30 03:39:05;;;;;;;22.38;5.53;;;24.10;79.60;;;;;;5075720;28;20394;-64
2022/06/30 03:41:31;;;;;;;14.15;4.60;;;24.10;79.90;;;;;;5075403;28;20025;-65
2022/06/30 03:43:56;;;;;;;12.90;5.50;;;24.10;79.50;;;;;;5075670;28;20039;-64
2022/06/30 03:46:22;;;;;;;20.45;5.30;;;24.10;79.30;;;;;;5074998;28;20037;-67
2022/06/30 03:48:48;;;;;;;23.65;5.40;;;24.20;81.50;;;;;;5075158;28;20090;-64
2022/06/30 03:51:14;;;;;;;13.75;5.25;;;24.20;79.10;;;;;;5075217;28;20063;-63
2022/06/30 03:53:39;;;;;;;17.85;5.25;;;24.20;79.40;;;;;;5075352;28;20052;-65
2022/06/30 03:56:05;;;;;;;15.10;5.05;;;24.10;79.70;;;;;;5075447;28;20552;-64
2022/06/30 03:58:32;;;;;;;18.35;5.53;;;24.20;79.30;;;;;;5075059;28;20379;-64
2022/06/30 04:00:57;;;;;;;12.13;5.35;;;24.20;78.80;;;;;;5074858;28;20032;-65
2022/06/30 04:03:23;;;;;;;13.88;5.68;;;24.30;78.70;;;;;;5074940;28;20044;-64
2022/06/30 04:05:48;;;;;;;22.50;6.03;;;24.20;78.80;;;;;;5074905;28;20029;-65
2022/06/30 04:08:14;;;;;;;19.45;5.93;;;24.20;78.90;;;;;;5074825;28;20480;-68
2022/06/30 04:10:40;;;;;;;24.80;5.60;;;24.20;78.50;;;;;;5075000;28;20440;-64
2022/06/30 04:13:05;;;;;;;23.00;5.57;;;24.20;78.90;;;;;;5074880;28;20041;-64
2022/06/30 04:15:31;;;;;;;20.25;5.60;;;24.20;78.80;;;;;;5074980;28;20486;-65
2022/06/30 04:17:57;;;;;;;21.58;5.72;;;24.30;78.70;;;;;;5074621;28;20101;-64
2022/06/30 04:20:23;;;;;;;18.33;5.45;;;24.20;79.10;;;;;;5074728;28;20045;-64
2022/06/30 04:22:52;;;;;;;20.50;6.30;;;24.20;79.10;;;;;;5074462;28;20125;-69
2022/06/30 04:25:18;;;;;;;16.20;5.15;;;24.20;78.80;;;;;;5074441;28;20029;-65
2022/06/30 04:27:49;;;;;;;20.17;5.32;;;24.20;78.40;;;;;;5074621;28;20395;-64
2022/06/30 04:32:37;;;;;;;19.10;5.35;;;24.20;78.90;;;;;;5074577;28;20041;-65
2022/06/30 04:33:02;;;;;;;18.63;5.90;;;24.20;79.40;;;;;;5074000;28;20139;-68
2022/06/30 04:35:27;;;;;;;23.65;5.97;;;24.20;78.50;;;;;;5074267;28;20025;-74
2022/06/30 04:37:57;;;;;;;24.85;6.18;;;24.30;78.90;;;;;;5073972;28;20382;-67
2022/06/30 04:43:06;;;;;;;30.40;6.00;;;24.30;78.60;;;;;;5074068;28;20457;-75
2022/06/30 04:45:32;;;;;;;18.52;4.90;;;24.20;78.50;;;;;;5073862;28;20040;-75
2022/06/30 04:47:58;;;;;;;19.20;5.30;;;24.30;78.20;;;;;;5073917;28;20490;-66
2022/06/30 04:50:23;;;;;;;24.50;6.40;;;24.30;78.20;;;;;;5073964;28;20435;-73
2022/06/30 04:52:49;;;;;;;25.85;5.82;;;24.30;78.40;;;;;;5074108;28;20533;-70
2022/06/30 04:55:15;;;;;;;24.63;5.85;;;24.30;78.00;;;;;;5074053;28;20060;-66
2022/06/30 04:57:41;;;;;;;25.13;5.90;;;24.30;77.70;;;;;;5072204;28;20028;-63
2022/06/30 05:00:07;;;;;;;23.35;7.10;;;24.30;77.60;;;;;;5071012;28;20032;-67
2022/06/30 05:02:33;;;;;;;28.63;5.53;;;24.40;77.70;;;;;;5073011;28;20119;-67
2022/06/30 05:04:58;;;;;;;27.25;5.95;;;24.40;77.90;;;;;;5073838;28;20112;-73
2022/06/30 05:07:24;;;;;;;19.40;5.15;;;24.30;78.40;;;;;;5073831;28;20033;-66
2022/06/30 05:09:50;;;;;;;16.40;5.85;;;24.30;78.70;;;;;;5073550;28;20154;-67
2022/06/30 05:12:15;;;;;;;14.75;5.50;;;24.40;78.70;;;;;;5073534;28;20418;-75
2022/06/30 05:14:41;;;;;;;18.67;5.20;;;24.40;78.30;;;;;;5073640;28;20037;-67
2022/06/30 05:17:07;;;;;;;24.92;5.65;;;24.50;78.50;;;;;;5073512;28;20074;-66
2022/06/30 05:19:32;;;;;;;20.52;5.45;;;24.50;78.30;;;;;;5073397;28;20025;-71
2022/06/30 05:21:59;;;;;;;18.83;5.03;;;24.50;78.20;;;;;;5073505;28;20035;-66
2022/06/30 05:27:09;;;;;;;30.30;5.80;;;24.60;77.40;;;;;;5073470;28;20035;-67
2022/06/30 05:29:35;;;;;;;22.58;5.38;;;24.60;77.30;;;;;;5073339;28;20032;-67
2022/06/30 05:32:01;;;;;;;18.50;4.97;;;24.60;77.20;;;;;;5073396;28;20493;-74
2022/06/30 05:34:26;;;;;;;18.52;5.25;;;24.70;76.90;;;;;;5073338;28;20098;-70
2022/06/30 05:36:52;;;;;;;17.42;5.35;;;24.70;76.70;;;;;;5073292;28;20029;-67
2022/06/30 05:39:18;;;;;;;19.85;5.20;;;24.80;76.90;;;;;;5073432;28;20037;-74
2022/06/30 05:41:43;;;;;;;16.58;5.25;;;24.80;76.80;;;;;;5073293;28;20484;-75
2022/06/30 05:44:09;;;;;;;18.60;5.30;;;24.80;76.60;;;;;;5073608;28;20032;-67
2022/06/30 05:46:36;;;;;;;27.90;5.75;;;24.80;76.40;;;;;;5073261;28;20059;-74
2022/06/30 05:49:02;;;;;;;19.98;5.80;;;24.80;76.30;;;;;;5073082;28;20032;-66
2022/06/30 05:51:28;;;;;;;18.00;5.07;;;24.90;76.70;;;;;;5072864;28;20044;-67
2022/06/30 05:53:54;;;;;;;23.83;5.57;;;24.90;76.70;;;;;;5072915;28;20033;-74
2022/06/30 05:56:20;;;;;;;19.30;5.30;;;25.00;76.70;;;;;;5072834;28;20032;-67
2022/06/30 05:58:45;;;;;;;17.83;5.00;;;25.00;76.30;;;;;;5073072;28;20483;-72
2022/06/30 06:01:11;;;;;;;21.92;5.45;;;25.10;75.90;;;;;;5073070;28;20024;-66
2022/06/30 06:03:37;;;;;;;13.32;4.63;;;25.10;75.30;;;;;;5072865;28;20502;-73
2022/06/30 06:06:03;;;;;;;19.80;5.32;;;25.10;75.40;;;;;;5073030;28;20082;-69
2022/06/30 06:08:29;;;;;;;13.80;4.47;;;25.20;75.60;;;;;;5072741;28;20037;-67
2022/06/30 06:10:54;;;;;;;22.17;5.30;;;25.30;75.40;;;;;;5072658;28;20032;-68
2022/06/30 06:13:20;;;;;;;14.48;4.88;;;25.30;75.30;;;;;;5072780;28;20449;-74
2022/06/30 06:15:47;;;;;;;25.65;5.65;;;25.30;75.00;;;;;;5072934;28;20050;-67
2022/06/30 06:18:13;;;;;;;20.20;5.03;;;25.30;75.30;;;;;;5072833;28;20025;-68
2022/06/30 06:20:38;;;;;;;17.77;5.82;;;25.30;75.00;;;;;;5072656;28;20041;-68
2022/06/30 06:23:04;;;;;;;20.88;5.00;;;25.40;75.60;;;;;;5072369;28;20033;-67
2022/06/30 06:25:30;;;;;;;25.80;5.43;;;25.40;74.70;;;;;;5072333;28;20044;-68
2022/06/30 06:30:39;;;;;;;19.33;5.20;;;25.50;74.40;;;;;;5072146;28;20059;-66
2022/06/30 06:33:05;;;;;;;28.33;6.57;;;25.50;74.80;;;;;;5072448;28;20088;-67
2022/06/30 06:35:31;;;;;;;21.73;5.18;;;25.60;74.40;;;;;;5071998;28;20035;-71
2022/06/30 06:37:56;;;;;;;21.63;5.60;;;25.60;74.00;;;;;;5071306;28;20036;-65
2022/06/30 06:40:22;;;;;;;17.60;5.07;;;25.70;74.00;;;;;;5052156;28;20048;-66
2022/06/30 06:42:48;;;;;;;15.52;5.00;;;25.70;73.80;;;;;;5051060;28;20163;-67
2022/06/30 06:45:13;;;;;;;19.45;4.75;;;25.80;74.10;;;;;;5051866;28;20040;-67
2022/06/30 06:47:40;;;;;;;24.88;6.40;;;25.80;73.40;;;;;;5051924;28;20044;-67
2022/06/30 06:50:09;;;;;;;22.15;5.82;;;25.80;73.10;;;;;;5051965;28;20423;-66
2022/06/30 06:52:35;;;;;;;21.17;6.60;;;25.90;74.00;;;;;;5051267;28;20041;-66
2022/06/30 06:55:01;;;;;;;18.65;5.22;;;25.90;73.50;;;;;;5051984;28;20052;-65
2022/06/30 06:57:38;;;;;;;17.25;5.88;;;26.00;74.00;;;;;;5051977;28;20496;-65
2022/06/30 07:00:09;;;;;;;21.73;6.57;;;26.00;74.30;;;;;;5051868;28;20071;-66
2022/06/30 07:02:35;;;;;;;17.73;5.18;;;26.10;73.00;;;;;;5051924;28;20099;-67
2022/06/30 07:05:01;;;;;;;18.75;5.05;;;26.10;72.60;;;;;;5052299;28;20061;-72
2022/06/30 07:07:26;;;;;;;24.10;5.22;;;26.10;72.60;;;;;;5052300;28;20044;-66
2022/06/30 07:09:52;;;;;;;25.75;5.55;;;26.20;71.90;;;;;;5051941;28;20040;-71
2022/06/30 07:12:18;;;;;;;14.52;4.93;;;26.20;71.40;;;;;;5051921;28;20502;-64
2022/06/30 07:14:44;;;;;;;14.10;5.07;;;26.30;71.90;;;;;;5052024;28;20110;-66
2022/06/30 07:17:09;;;;;;;16.73;5.22;;;26.30;72.30;;;;;;5051992;28;20379;-69
2022/06/30 07:19:35;;;;;;;17.13;6.03;;;26.40;71.80;;;;;;5051917;28;20037;-71
2022/06/30 07:22:01;;;;;;;17.23;4.93;;;26.50;71.90;;;;;;5052751;28;20041;-66
2022/06/30 07:24:27;;;;;;;19.70;5.07;;;26.60;71.70;;;;;;5055555;28;20044;-68
2022/06/30 07:26:53;;;;;;;18.38;4.93;;;26.60;71.20;;;;;;5055781;28;20139;-69
2022/06/30 07:29:19;;;;;;;18.20;5.97;;;26.60;70.70;;;;;;5055530;28;20403;-67
2022/06/30 07:31:44;;;;;;;26.33;5.65;;;26.60;70.60;;;;;;5055441;28;20071;-70
2022/06/30 07:34:10;;;;;;;23.92;5.30;;;26.60;70.60;;;;;;5055175;28;20041;-72
2022/06/30 07:36:36;;;;;;;28.35;4.82;;;26.70;69.70;;;;;;5055422;28;20167;-67
2022/06/30 07:39:03;;;;;;;14.93;4.65;;;26.70;69.80;;;;;;5055460;28;20044;-71
2022/06/30 07:41:29;;;;;;;23.90;5.22;;;26.70;69.10;;;;;;5053005;28;20079;-67
2022/06/30 07:43:55;;;;;;;19.20;4.88;;;26.80;68.90;;;;;;5052389;28;20036;-64
2022/06/30 07:46:20;;;;;;;19.08;4.65;;;26.80;68.90;;;;;;5053646;28;20040;-71
2022/06/30 07:48:47;;;;;;;23.60;5.60;;;26.90;69.40;;;;;;5055301;28;20029;-65
2022/06/30 07:51:15;;;;;;;26.17;5.40;;;26.90;69.30;;;;;;5055182;28;20037;-66
2022/06/30 07:53:41;;;;;;;14.63;4.35;;;27.00;69.60;;;;;;5054627;28;20045;-69
2022/06/30 07:56:06;;;;;;;19.50;5.05;;;27.00;69.90;;;;;;5055039;28;20516;-66
2022/06/30 07:58:33;;;;;;;16.75;4.88;;;27.10;70.40;;;;;;5054866;28;20029;-72
2022/06/30 08:00:59;;;;;;;17.52;5.18;;;27.10;69.90;;;;;;5054849;28;20545;-67
2022/06/30 08:03:25;;;;;;;17.05;5.30;;;27.20;69.20;;;;;;5054886;28;20037;-70
2022/06/30 08:05:51;;;;;;;24.63;4.95;;;27.30;69.50;;;;;;5054882;28;20535;-66
2022/06/30 08:08:17;;;;;;;22.45;5.13;;;27.30;69.30;;;;;;5054966;28;20112;-67
2022/06/30 08:10:42;;;;;;;15.35;4.70;;;27.40;69.60;;;;;;5054694;28;20112;-66
2022/06/30 08:13:09;;;;;;;17.75;4.40;;;27.50;68.80;;;;;;5054764;28;20040;-66
2022/06/30 08:15:34;;;;;;;22.95;5.63;;;27.50;68.20;;;;;;5054499;28;20497;-67
2022/06/30 08:18:05;;;;;;;22.70;5.70;;;27.50;68.10;;;;;;5054651;28;20116;-65
2022/06/30 08:20:31;;;;;;;23.20;4.80;;;27.60;69.10;;;;;;5054433;28;20422;-67
2022/06/30 08:22:57;;;;;;;22.67;5.22;;;27.60;68.40;;;;;;5054174;28;20036;-66
2022/06/30 08:25:23;;;;;;;23.70;4.82;;;27.70;68.30;;;;;;5052544;28;20526;-65
2022/06/30 08:27:49;;;;;;;17.90;4.85;;;27.80;68.50;;;;;;5053347;28;20426;-66
2022/06/30 08:30:15;;;;;;;21.05;4.93;;;27.90;67.50;;;;;;5054233;28;20040;-66
2022/06/30 08:32:41;;;;;;;22.23;5.05;;;27.90;66.80;;;;;;5054114;28;20045;-66
2022/06/30 08:35:07;;;;;;;20.95;5.13;;;27.90;66.80;;;;;;5054579;28;20400;-66
2022/06/30 08:37:32;;;;;;;19.00;5.10;;;28.00;67.40;;;;;;5054240;28;20048;-67
2022/06/30 08:42:43;;;;;;;20.00;4.75;;;28.10;66.40;;;;;;5054298;28;20518;-67
2022/06/30 08:45:16;;;;;;;16.13;4.45;;;28.20;65.60;;;;;;5054185;28;20124;-66
2022/06/30 08:47:43;;;;;;;15.45;4.10;;;28.20;65.70;;;;;;5054139;28;20404;-66
2022/06/30 08:50:09;;;;;;;21.05;4.43;;;28.30;65.60;;;;;;5054230;28;20521;-66
2022/06/30 08:52:48;;;;;;;19.30;4.28;;;28.40;64.10;;;;;;5054574;28;20041;-66
2022/06/30 08:55:15;;;;;;;18.05;5.03;;;28.40;64.50;;;;;;5054449;28;20040;-67
2022/06/30 08:57:43;;;;;;;19.83;4.15;;;28.50;64.50;;;;;;5053665;28;20243;-66
2022/06/30 09:00:11;;;;;;;16.35;4.43;;;28.60;64.10;;;;;;5053982;28;20037;-66
2022/06/30 09:02:36;;;;;;;18.73;5.03;;;28.60;63.80;;;;;;5053993;28;20037;-67
2022/06/30 09:05:02;;;;;;;19.83;4.13;;;28.70;63.60;;;;;;5053820;28;20471;-67
2022/06/30 09:07:28;;;;;;;20.67;4.32;;;28.80;63.60;;;;;;5053845;28;20147;-67
2022/06/30 09:09:54;;;;;;;18.90;4.25;;;28.80;63.10;;;;;;5053681;28;20033;-67
2022/06/30 09:12:20;;;;;;;16.70;4.10;;;28.90;62.70;;;;;;5053684;28;20406;-66
2022/06/30 09:14:47;;;;;;;17.60;4.38;;;29.00;62.30;;;;;;5053984;28;20523;-65
2022/06/30 09:17:15;;;;;;;15.07;4.20;;;29.10;62.10;;;;;;5053308;28;20041;-70
2022/06/30 09:19:52;;;;;;;25.58;5.10;;;29.20;61.80;;;;;;5053508;28;20068;-67
2022/06/30 09:22:18;;;;;;;25.00;4.78;;;29.30;60.90;;;;;;5053434;28;20143;-67
2022/06/30 09:24:44;;;;;;;17.40;4.55;;;29.20;61.70;;;;;;5053394;28;20044;-66
2022/06/30 09:27:14;;;;;;;15.40;4.50;;;29.20;61.40;;;;;;5053157;28;20111;-73
2022/06/30 09:29:47;;;;;;;22.40;5.15;;;29.10;61.70;;;;;;5053115;28;20037;-66
2022/06/30 09:32:13;;;;;;;25.85;5.32;;;29.10;61.80;;;;;;5052898;28;20049;-66
2022/06/30 09:34:42;;;;;;;19.65;4.70;;;29.00;62.60;;;;;;5053142;28;20052;-67
2022/06/30 09:37:22;;;;;;;24.50;4.88;;;29.00;63.00;;;;;;5052899;28;20041;-67
2022/06/30 09:39:50;;;;;;;24.23;4.88;;;29.10;61.20;;;;;;5053033;28;20120;-67
2022/06/30 09:42:45;;;;;;;20.58;4.32;;;29.20;61.50;;;;;;5052877;28;20485;-67
2022/06/30 09:45:13;;;;;;;20.42;4.72;;;29.30;60.10;;;;;;5052871;28;20037;-66
2022/06/30 09:47:52;;;;;;;13.60;4.28;;;29.40;59.80;;;;;;5052799;28;20037;-75
2022/06/30 09:50:18;;;;;;;14.75;4.22;;;29.40;60.60;;;;;;5053033;28;20446;-66
2022/06/30 09:52:44;;;;;;;19.58;4.63;;;29.50;59.80;;;;;;5052712;28;20045;-66
2022/06/30 09:55:09;;;;;;;15.48;4.80;;;29.50;61.10;;;;;;5052999;28;20108;-66
2022/06/30 09:57:43;;;;;;;22.02;4.68;;;29.50;60.60;;;;;;5052747;28;20040;-66
2022/06/30 10:00:14;;;;;;;19.05;5.03;;;29.50;60.70;;;;;;5052809;28;20041;-67
2022/06/30 10:02:47;;;;;;;26.40;5.32;;;29.60;60.90;;;;;;5052867;28;20029;-67
2022/06/30 10:05:15;;;;;;;18.25;3.85;;;29.60;60.10;;;;;;5052954;28;20581;-67
2022/06/30 10:07:41;;;;;;;16.80;4.15;;;29.70;60.50;;;;;;5052568;28;20119;-67
2022/06/30 10:10:09;;;;;;;15.07;4.28;;;29.80;60.90;;;;;;5052955;28;20112;-66
2022/06/30 10:12:36;;;;;;;18.92;4.07;;;29.90;61.50;;;;;;5052493;28;20045;-68
2022/06/30 10:15:03;;;;;;;18.75;5.05;;;30.00;61.30;;;;;;5052583;28;20053;-67
2022/06/30 10:17:33;;;;;;;25.73;4.90;;;30.10;60.20;;;;;;5052660;28;20044;-67
2022/06/30 10:35:36;;;;;;;17.33;4.07;;;30.10;56.50;;;;;;5090053;27;20472;-67
2022/06/30 10:38:20;;;;;;;17.15;4.25;;;30.50;58.00;;;;;;5087928;28;20124;-66
2022/06/30 10:41:02;;;;;;;14.50;4.10;;;30.70;57.50;;;;;;5090123;28;20071;-67
2022/06/30 10:43:28;;;;;;;14.18;4.00;;;30.80;56.70;;;;;;5090022;28;20119;-67
2022/06/30 10:46:01;;;;;;;17.67;3.97;;;30.80;56.60;;;;;;5089995;28;20475;-78
2022/06/30 10:48:47;;;;;;;13.02;3.63;;;30.80;56.20;;;;;;5090257;28;20025;-66
2022/06/30 10:51:14;;;;;;;17.88;4.15;;;30.80;55.80;;;;;;5090111;28;20024;-67
2022/06/30 10:53:40;;;;;;;14.30;4.03;;;30.80;55.20;;;;;;5089736;28;20024;-67
2022/06/30 10:56:06;;;;;;;16.02;3.33;;;30.80;56.40;;;;;;5089430;28;20070;-67
2022/06/30 10:58:32;;;;;;;18.50;3.90;;;30.90;56.20;;;;;;5089737;28;20017;-67
2022/06/30 11:01:13;;;;;;;15.95;4.18;;;30.90;56.00;;;;;;5089838;28;20093;-67
2022/06/30 11:03:38;;;;;;;17.57;3.97;;;31.00;56.10;;;;;;5089553;28;20035;-67
2022/06/30 11:06:06;;;;;;;18.33;4.10;;;31.00;54.40;;;;;;5089617;28;20259;-67
2022/06/30 11:08:39;;;;;;;17.23;3.95;;;31.00;54.50;;;;;;5089670;28;20058;-67
2022/06/30 11:11:23;;;;;;;23.55;4.00;;;31.00;55.80;;;;;;5089729;28;20500;-68
2022/06/30 11:14:01;;;;;;;13.50;3.92;;;31.00;55.00;;;;;;5089641;28;20033;-67
2022/06/30 11:16:28;;;;;;;17.98;4.18;;;31.10;55.70;;;;;;5089481;28;20196;-68
2022/06/30 11:18:54;;;;;;;15.13;3.90;;;31.20;56.50;;;;;;5089605;28;20035;-67
2022/06/30 11:21:20;;;;;;;16.08;3.63;;;31.20;55.40;;;;;;5087930;28;20028;-67
2022/06/30 11:23:47;;;;;;;14.40;2.95;;;31.30;54.60;;;;;;5086891;28;20123;-68
2022/06/30 11:29:05;;;;;;;13.00;3.47;;;31.40;54.60;;;;;;5086490;28;20154;-68
2022/06/30 11:31:36;;;;;;;18.30;3.55;;;31.40;54.00;;;;;;5086691;28;20029;-66
2022/06/30 11:34:11;;;;;;;23.27;3.53;;;31.40;54.00;;;;;;5083520;28;20106;-68
2022/06/30 11:36:40;;;;;;;14.57;3.30;;;31.40;52.60;;;;;;5072930;28;20032;-68
2022/06/30 11:39:09;;;;;;;15.95;3.40;;;31.40;53.20;;;;;;5074717;28;20024;-67
2022/06/30 11:41:54;;;;;;;17.10;3.67;;;31.40;53.20;;;;;;5075450;28;20493;-78
2022/06/30 11:44:22;;;;;;;18.83;3.80;;;31.50;54.00;;;;;;5075319;28;20474;-68
2022/06/30 11:47:07;;;;;;;17.52;3.63;;;31.50;54.10;;;;;;5075264;28;20066;-67
2022/06/30 11:49:48;;;;;;;13.80;3.20;;;31.60;53.50;;;;;;5075487;28;20024;-67
2022/06/30 11:52:29;;;;;;;17.00;3.83;;;31.60;51.10;;;;;;5074619;28;20035;-66
2022/06/30 11:54:59;;;;;;;13.00;3.75;;;31.60;52.20;;;;;;5075396;28;20054;-69
2022/06/30 11:57:30;;;;;;;14.35;3.90;;;31.70;52.00;;;;;;5073654;28;20020;-65
2022/06/30 12:00:07;;;;;;;13.90;3.38;;;31.70;51.70;;;;;;5074916;28;20154;-65
2022/06/30 12:02:34;;;;;;;26.17;3.45;;;31.80;52.10;;;;;;5075181;28;20017;-65
2022/06/30 12:05:01;;;;;;;17.63;3.63;;;31.90;53.20;;;;;;5075308;28;20032;-65
2022/06/30 12:07:29;;;;;;;20.70;3.90;;;31.90;53.50;;;;;;5075497;28;20024;-65
2022/06/30 12:09:55;;;;;;;12.20;3.13;;;31.90;52.00;;;;;;5075339;28;20074;-70
2022/06/30 12:12:27;;;;;;;14.70;3.03;;;31.90;50.60;;;;;;5074957;28;20028;-65
2022/06/30 12:14:54;;;;;;;;;;;32.00;48.60;;;;;;5075262;28;20074;-65
2022/06/30 12:17:21;;;;;;;17.35;3.35;;;31.90;48.90;;;;;;5074494;28;20246;-65
2022/06/30 12:19:48;;;;;;;12.15;3.10;;;31.80;49.00;;;;;;5074901;28;20032;-65
2022/06/30 12:22:14;;;;;;;12.30;3.22;;;31.80;48.80;;;;;;5075127;28;20397;-65
2022/06/30 12:24:43;;;;;;;14.00;3.33;;;31.80;50.10;;;;;;5074927;28;20032;-65
2022/06/30 12:27:36;;;;;;;11.48;3.03;;;31.80;49.90;;;;;;5075066;28;20035;-65
2022/06/30 12:30:07;;;;;;;18.52;3.88;;;31.80;50.50;;;;;;5074810;28;20021;-65
2022/06/30 12:32:32;;;;;;;16.08;2.83;;;31.80;49.70;;;;;;5074857;28;20032;-65
2022/06/30 12:34:59;;;;;;;16.08;3.65;;;31.80;50.90;;;;;;5074682;28;20045;-65
2022/06/30 12:37:30;;;;;;;11.55;3.58;;;31.90;50.40;;;;;;5074673;28;20029;-65
2022/06/30 12:40:12;;;;;;;18.48;3.63;;;31.90;49.90;;;;;;5074639;28;20488;-65
2022/06/30 12:42:46;;;;;;;12.07;3.55;;;32.00;50.50;;;;;;5074221;28;20029;-65
2022/06/30 12:45:41;;;;;;;14.60;3.65;;;32.00;49.80;;;;;;5074823;28;20404;-65
2022/06/30 12:48:07;;;;;;;17.17;3.20;;;32.10;49.50;;;;;;5073774;28;20086;-65
2022/06/30 12:50:38;;;;;;;14.45;3.45;;;32.00;50.30;;;;;;5074107;28;20031;-65
2022/06/30 12:53:26;;;;;;;15.52;3.50;;;32.00;50.30;;;;;;5074365;28;20089;-65
2022/06/30 12:56:05;;;;;;;11.55;3.03;;;32.00;49.80;;;;;;5074479;28;20033;-65
2022/06/30 12:58:48;;;;;;;10.85;3.08;;;32.10;50.00;;;;;;5074424;28;20032;-65
2022/06/30 13:01:23;;;;;;;10.73;2.80;;;32.00;50.10;;;;;;5074208;28;20029;-65
2022/06/30 13:03:56;;;;;;;15.85;3.35;;;32.10;49.80;;;;;;5073944;28;20127;-65
2022/06/30 13:06:23;;;;;;;15.50;3.42;;;32.10;49.30;;;;;;5074345;28;20016;-64
2022/06/30 13:08:50;;;;;;;15.73;3.50;;;32.10;50.10;;;;;;5074206;28;20566;-65
2022/06/30 13:11:36;;;;;;;17.20;3.83;;;32.10;50.50;;;;;;5073982;28;20032;-65
2022/06/30 13:14:03;;;;;;;20.35;4.43;;;32.10;50.60;;;;;;5074219;28;20086;-65